sensor_id;sensor_type;location;lat;lon;timestamp;temperature;humidity
13470;DHT22;6807;48.682;9.032;2022-11-23T09:49:33;15.00;99.90
13470;DHT22;6807;48.682;9.032;2022-11-23T11:05:28;17.80;99.90
13470;DHT22;6807;48.682;9.032;2022-11-23T11:10:38;18.30;99.90
13470;DHT22;6807;48.682;9.032;2022-11-23T11:13:23;18.40;1.00
13470;DHT22;6807;48.682;9.032;2022-11-23T11:15:52;18.50;1.00
13470;DHT22;6807;48.682;9.032;2022-11-23T11:18:20;16.70;1.00
13470;DHT22;6807;48.682;9.032;2022-11-23T11:20:48;16.40;1.00
13470;DHT22;6807;48.682;9.032;2022-11-23T11:23:21;15.40;1.00
13470;DHT22;6807;48.682;9.032;2022-11-23T11:26:02;16.70;1.00
13470;DHT22;6807;48.682;9.032;2022-11-23T11:28:40;16.00;1.00
13470;DHT22;6807;48.682;9.032;2022-11-23T11:31:31;16.60;1.00
13470;DHT22;6807;48.682;9.032;2022-11-23T11:34:08;16.70;1.00
13470;DHT22;6807;48.682;9.032;2022-11-23T11:36:47;17.50;1.00
13470;DHT22;6807;48.682;9.032;2022-11-23T11:39:21;16.80;1.00
13470;DHT22;6807;48.682;9.032;2022-11-23T11:41:52;17.80;1.00
13470;DHT22;6807;48.682;9.032;2022-11-23T11:44:22;16.70;1.00
13470;DHT22;6807;48.682;9.032;2022-11-23T11:46:55;18.00;1.00
13470;DHT22;6807;48.682;9.032;2022-11-23T11:49:27;17.60;1.00
13470;DHT22;6807;48.682;9.032;2022-11-23T11:52:01;16.70;1.00
13470;DHT22;6807;48.682;9.032;2022-11-23T11:54:33;16.50;1.00
13470;DHT22;6807;48.682;9.032;2022-11-23T11:57:12;17.10;1.00
13470;DHT22;6807;48.682;9.032;2022-11-23T11:59:44;17.60;1.00
13470;DHT22;6807;48.682;9.032;2022-11-23T12:02:18;16.30;1.00
13470;DHT22;6807;48.682;9.032;2022-11-23T12:04:59;17.20;1.00
13470;DHT22;6807;48.682;9.032;2022-11-23T12:07:30;17.00;1.00
13470;DHT22;6807;48.682;9.032;2022-11-23T12:10:04;16.50;1.00
13470;DHT22;6807;48.682;9.032;2022-11-23T12:12:35;16.50;1.00
13470;DHT22;6807;48.682;9.032;2022-11-23T12:15:04;16.30;1.00
13470;DHT22;6807;48.682;9.032;2022-11-23T12:20:51;16.00;1.00
13470;DHT22;6807;48.682;9.032;2022-11-23T12:23:28;16.60;1.00
13470;DHT22;6807;48.682;9.032;2022-11-23T12:26:09;16.40;1.00
13470;DHT22;6807;48.682;9.032;2022-11-23T12:29:12;16.50;1.00
13470;DHT22;6807;48.682;9.032;2022-11-23T12:32:01;15.40;1.00
13470;DHT22;6807;48.682;9.032;2022-11-23T12:34:46;15.50;1.00
13470;DHT22;6807;48.682;9.032;2022-11-23T12:37:38;15.90;1.00
13470;DHT22;6807;48.682;9.032;2022-11-23T12:40:22;16.50;1.00
13470;DHT22;6807;48.682;9.032;2022-11-23T12:42:59;16.60;1.00
13470;DHT22;6807;48.682;9.032;2022-11-23T12:45:38;16.10;1.00
13470;DHT22;6807;48.682;9.032;2022-11-23T12:48:25;16.10;1.00
13470;DHT22;6807;48.682;9.032;2022-11-23T12:50:59;16.00;1.00
13470;DHT22;6807;48.682;9.032;2022-11-23T12:53:36;17.40;1.00
13470;DHT22;6807;48.682;9.032;2022-11-23T12:56:14;17.10;1.00
13470;DHT22;6807;48.682;9.032;2022-11-23T12:58:44;16.40;1.00
13470;DHT22;6807;48.682;9.032;2022-11-23T13:01:16;16.30;1.00
13470;DHT22;6807;48.682;9.032;2022-11-23T13:04:01;16.50;1.00
13470;DHT22;6807;48.682;9.032;2022-11-23T13:06:59;16.70;1.00
13470;DHT22;6807;48.682;9.032;2022-11-23T13:12:31;16.90;1.00
13470;DHT22;6807;48.682;9.032;2022-11-23T13:15:15;17.10;1.00
13470;DHT22;6807;48.682;9.032;2022-11-23T13:17:51;16.30;1.00
13470;DHT22;6807;48.682;9.032;2022-11-23T13:20:41;16.20;1.00
13470;DHT22;6807;48.682;9.032;2022-11-23T13:23:34;17.20;1.00
13470;DHT22;6807;48.682;9.032;2022-11-23T13:26:18;15.40;1.00
13470;DHT22;6807;48.682;9.032;2022-11-23T13:28:47;16.00;1.00
13470;DHT22;6807;48.682;9.032;2022-11-23T13:31:23;14.90;1.00
13470;DHT22;6807;48.682;9.032;2022-11-23T13:33:54;14.90;1.00
13470;DHT22;6807;48.682;9.032;2022-11-23T13:36:41;13.00;1.00
13470;DHT22;6807;48.682;9.032;2022-11-23T13:42:23;11.10;1.00
13470;DHT22;6807;48.682;9.032;2022-11-23T13:48:16;11.50;1.00
13470;DHT22;6807;48.682;9.032;2022-11-23T13:51:00;11.20;1.00
13470;DHT22;6807;48.682;9.032;2022-11-23T13:53:30;10.50;1.00
13470;DHT22;6807;48.682;9.032;2022-11-23T13:56:25;10.20;99.90
13470;DHT22;6807;48.682;9.032;2022-11-23T13:58:56;9.80;99.90
13470;DHT22;6807;48.682;9.032;2022-11-23T14:04:40;9.40;99.90
13470;DHT22;6807;48.682;9.032;2022-11-23T14:07:14;9.40;99.90
13470;DHT22;6807;48.682;9.032;2022-11-23T14:09:44;9.60;99.90
13470;DHT22;6807;48.682;9.032;2022-11-23T14:12:21;9.70;99.90
13470;DHT22;6807;48.682;9.032;2022-11-23T14:14:56;10.00;99.90
13470;DHT22;6807;48.682;9.032;2022-11-23T14:20:51;10.80;99.90
13470;DHT22;6807;48.682;9.032;2022-11-23T14:24:00;10.90;99.90
13470;DHT22;6807;48.682;9.032;2022-11-23T14:26:32;11.30;1.00
13470;DHT22;6807;48.682;9.032;2022-11-23T14:29:17;11.40;1.00
13470;DHT22;6807;48.682;9.032;2022-11-23T14:31:55;11.40;1.00
13470;DHT22;6807;48.682;9.032;2022-11-23T14:34:30;12.00;1.00
13470;DHT22;6807;48.682;9.032;2022-11-23T14:37:04;12.10;1.00
13470;DHT22;6807;48.682;9.032;2022-11-23T14:39:54;12.40;1.00
13470;DHT22;6807;48.682;9.032;2022-11-23T14:42:26;11.80;99.90
13470;DHT22;6807;48.682;9.032;2022-11-23T14:44:55;10.60;99.90
13470;DHT22;6807;48.682;9.032;2022-11-23T14:47:28;9.80;99.90
13470;DHT22;6807;48.682;9.032;2022-11-23T14:49:57;9.20;99.90
13470;DHT22;6807;48.682;9.032;2022-11-23T14:52:26;8.90;99.90
13470;DHT22;6807;48.682;9.032;2022-11-23T14:54:59;8.50;99.90
13470;DHT22;6807;48.682;9.032;2022-11-23T14:57:33;8.30;99.90
13470;DHT22;6807;48.682;9.032;2022-11-23T15:00:03;8.10;99.90
13470;DHT22;6807;48.682;9.032;2022-11-23T15:02:33;7.90;99.90
13470;DHT22;6807;48.682;9.032;2022-11-23T15:05:06;7.80;99.90
13470;DHT22;6807;48.682;9.032;2022-11-23T15:07:47;7.60;99.90
13470;DHT22;6807;48.682;9.032;2022-11-23T15:10:29;7.50;99.90
13470;DHT22;6807;48.682;9.032;2022-11-23T15:12:56;7.40;1.00
13470;DHT22;6807;48.682;9.032;2022-11-23T15:15:25;7.30;1.00
13470;DHT22;6807;48.682;9.032;2022-11-23T15:17:54;7.20;1.00
13470;DHT22;6807;48.682;9.032;2022-11-23T15:20:28;7.10;1.00
13470;DHT22;6807;48.682;9.032;2022-11-23T15:22:58;7.00;1.00
13470;DHT22;6807;48.682;9.032;2022-11-23T15:25:28;6.80;99.90
13470;DHT22;6807;48.682;9.032;2022-11-23T15:27:55;6.70;99.90
13470;DHT22;6807;48.682;9.032;2022-11-23T15:30:27;6.60;99.90
13470;DHT22;6807;48.682;9.032;2022-11-23T15:33:09;6.50;99.90
13470;DHT22;6807;48.682;9.032;2022-11-23T15:35:37;6.50;99.90
13470;DHT22;6807;48.682;9.032;2022-11-23T15:38:09;6.40;99.90
13470;DHT22;6807;48.682;9.032;2022-11-23T15:40:40;6.40;99.90
13470;DHT22;6807;48.682;9.032;2022-11-23T15:43:11;6.40;99.90
13470;DHT22;6807;48.682;9.032;2022-11-23T15:46:03;6.40;99.90
13470;DHT22;6807;48.682;9.032;2022-11-23T15:48:33;6.40;99.90
13470;DHT22;6807;48.682;9.032;2022-11-23T15:51:03;6.30;99.90
13470;DHT22;6807;48.682;9.032;2022-11-23T15:53:32;6.30;99.90
13470;DHT22;6807;48.682;9.032;2022-11-23T15:56:05;6.20;99.90
13470;DHT22;6807;48.682;9.032;2022-11-23T15:58:33;6.30;99.90
13470;DHT22;6807;48.682;9.032;2022-11-23T16:01:06;6.10;99.90
13470;DHT22;6807;48.682;9.032;2022-11-23T16:03:39;6.00;99.90
13470;DHT22;6807;48.682;9.032;2022-11-23T16:06:23;5.80;99.90
13470;DHT22;6807;48.682;9.032;2022-11-23T16:08:51;5.90;99.90
13470;DHT22;6807;48.682;9.032;2022-11-23T16:11:31;6.00;99.90
13470;DHT22;6807;48.682;9.032;2022-11-23T16:14:17;6.20;99.90
13470;DHT22;6807;48.682;9.032;2022-11-23T16:16:45;6.30;99.90
13470;DHT22;6807;48.682;9.032;2022-11-23T16:19:27;6.20;99.90
13470;DHT22;6807;48.682;9.032;2022-11-23T16:21:57;6.40;99.90
13470;DHT22;6807;48.682;9.032;2022-11-23T16:24:25;6.40;99.90
13470;DHT22;6807;48.682;9.032;2022-11-23T16:26:54;6.40;99.90
13470;DHT22;6807;48.682;9.032;2022-11-23T16:29:23;6.50;99.90
13470;DHT22;6807;48.682;9.032;2022-11-23T16:31:54;6.50;99.90
13470;DHT22;6807;48.682;9.032;2022-11-23T16:34:22;6.50;99.90
13470;DHT22;6807;48.682;9.032;2022-11-23T16:36:49;6.60;99.90
13470;DHT22;6807;48.682;9.032;2022-11-23T16:39:21;6.60;99.90
13470;DHT22;6807;48.682;9.032;2022-11-23T16:41:50;6.60;99.90
13470;DHT22;6807;48.682;9.032;2022-11-23T16:44:19;6.60;99.90
13470;DHT22;6807;48.682;9.032;2022-11-23T16:46:46;6.70;99.90
13470;DHT22;6807;48.682;9.032;2022-11-23T16:49:16;6.70;99.90
13470;DHT22;6807;48.682;9.032;2022-11-23T16:51:44;6.70;99.90
13470;DHT22;6807;48.682;9.032;2022-11-23T16:54:15;6.70;99.90
13470;DHT22;6807;48.682;9.032;2022-11-23T16:56:42;6.60;99.90
13470;DHT22;6807;48.682;9.032;2022-11-23T16:59:15;6.70;99.90
13470;DHT22;6807;48.682;9.032;2022-11-23T17:01:45;6.60;99.90
13470;DHT22;6807;48.682;9.032;2022-11-23T17:04:14;6.80;99.90
13470;DHT22;6807;48.682;9.032;2022-11-23T17:06:41;6.70;99.90
13470;DHT22;6807;48.682;9.032;2022-11-23T17:09:09;6.70;99.90
13470;DHT22;6807;48.682;9.032;2022-11-23T17:11:39;6.70;99.90
13470;DHT22;6807;48.682;9.032;2022-11-23T20:46:32;6.60;99.90
13470;DHT22;6807;48.682;9.032;2022-11-23T21:03:50;6.90;1.00
